Kandiyohi, Minnesota
Current Conditions -  °F | °C
As of 11:35 AM on Sunday 23 Nov 2014 (Local Time) from KBDH Reporting Station
Unknown Precip Unknown Precip  
Wind Chill: 33°   Ceiling: Unl
Heat Index: 37°   Visibility: 7mi
Dew Point: 34°   Wind: 6mph
Humidity: 87%   Direction: 290°WNW
Pressure: 29.48"   Gusts: NA
Location:  45.13°N, 94.93°W
Report Text: KBDH 231735Z AUTO 29005KT 7SM UP CLR 03/01 A2948 RMK AO2
Loading
Personal Weather Stations






























Interactive Weather Map New forecast layout! Learn more

10-Day Weather Forecast

Advertisements
Track Severe Weather on mobile